sensor_id;sensor_type;location;lat;lon;timestamp;P1;durP1;ratioP1;P2;durP2;ratioP2
58196;SDS011;43999;51.660;5.616;2023-07-31T00:00:54;33.38;;;21.80;;
58196;SDS011;43999;51.660;5.616;2023-07-31T00:03:21;33.00;;;22.02;;
58196;SDS011;43999;51.660;5.616;2023-07-31T00:05:49;43.70;;;21.67;;
58196;SDS011;43999;51.660;5.616;2023-07-31T00:08:16;34.03;;;21.08;;
58196;SDS011;43999;51.660;5.616;2023-07-31T00:10:43;37.80;;;19.58;;
58196;SDS011;43999;51.660;5.616;2023-07-31T00:13:11;36.65;;;19.88;;
58196;SDS011;43999;51.660;5.616;2023-07-31T00:15:38;29.13;;;17.25;;
58196;SDS011;43999;51.660;5.616;2023-07-31T00:18:06;32.22;;;19.27;;
58196;SDS011;43999;51.660;5.616;2023-07-31T00:20:33;31.40;;;20.08;;
58196;SDS011;43999;51.660;5.616;2023-07-31T00:23:01;27.80;;;17.77;;
58196;SDS011;43999;51.660;5.616;2023-07-31T00:25:28;27.20;;;17.35;;
58196;SDS011;43999;51.660;5.616;2023-07-31T00:27:55;27.08;;;17.80;;
58196;SDS011;43999;51.660;5.616;2023-07-31T00:30:23;29.67;;;16.02;;
58196;SDS011;43999;51.660;5.616;2023-07-31T00:32:53;26.15;;;18.90;;
58196;SDS011;43999;51.660;5.616;2023-07-31T00:35:20;30.70;;;17.52;;
58196;SDS011;43999;51.660;5.616;2023-07-31T00:37:47;29.70;;;17.38;;
58196;SDS011;43999;51.660;5.616;2023-07-31T00:40:15;24.98;;;14.65;;
58196;SDS011;43999;51.660;5.616;2023-07-31T00:42:43;26.23;;;16.60;;
58196;SDS011;43999;51.660;5.616;2023-07-31T00:45:11;27.35;;;16.52;;
58196;SDS011;43999;51.660;5.616;2023-07-31T00:47:38;21.75;;;15.35;;
58196;SDS011;43999;51.660;5.616;2023-07-31T00:50:06;23.33;;;14.77;;
58196;SDS011;43999;51.660;5.616;2023-07-31T00:52:35;23.48;;;15.60;;
58196;SDS011;43999;51.660;5.616;2023-07-31T00:55:03;26.85;;;14.63;;
58196;SDS011;43999;51.660;5.616;2023-07-31T00:57:33;17.45;;;13.35;;
58196;SDS011;43999;51.660;5.616;2023-07-31T01:00:03;22.05;;;13.48;;
58196;SDS011;43999;51.660;5.616;2023-07-31T01:02:33;20.77;;;12.88;;
58196;SDS011;43999;51.660;5.616;2023-07-31T01:05:04;23.27;;;13.05;;
58196;SDS011;43999;51.660;5.616;2023-07-31T01:10:26;20.15;;;12.60;;
58196;SDS011;43999;51.660;5.616;2023-07-31T01:13:04;24.45;;;14.30;;
58196;SDS011;43999;51.660;5.616;2023-07-31T01:15:32;22.35;;;13.32;;
58196;SDS011;43999;51.660;5.616;2023-07-31T01:18:02;18.63;;;12.75;;
58196;SDS011;43999;51.660;5.616;2023-07-31T01:20:30;18.70;;;11.68;;
58196;SDS011;43999;51.660;5.616;2023-07-31T01:26:26;16.52;;;10.20;;
58196;SDS011;43999;51.660;5.616;2023-07-31T01:29:06;18.05;;;11.90;;
58196;SDS011;43999;51.660;5.616;2023-07-31T01:32:09;16.17;;;11.52;;
58196;SDS011;43999;51.660;5.616;2023-07-31T01:34:38;19.20;;;11.65;;
58196;SDS011;43999;51.660;5.616;2023-07-31T01:37:09;19.50;;;11.50;;
58196;SDS011;43999;51.660;5.616;2023-07-31T01:39:36;21.98;;;11.15;;
58196;SDS011;43999;51.660;5.616;2023-07-31T01:42:04;18.63;;;11.40;;
58196;SDS011;43999;51.660;5.616;2023-07-31T01:44:32;19.45;;;9.95;;
58196;SDS011;43999;51.660;5.616;2023-07-31T01:46:59;17.88;;;10.93;;
58196;SDS011;43999;51.660;5.616;2023-07-31T01:49:27;21.60;;;12.05;;
58196;SDS011;43999;51.660;5.616;2023-07-31T01:51:54;18.58;;;9.70;;
58196;SDS011;43999;51.660;5.616;2023-07-31T01:54:22;23.67;;;11.32;;
58196;SDS011;43999;51.660;5.616;2023-07-31T01:56:49;16.92;;;9.55;;
58196;SDS011;43999;51.660;5.616;2023-07-31T01:59:16;16.45;;;9.50;;
58196;SDS011;43999;51.660;5.616;2023-07-31T02:01:44;21.15;;;10.55;;
58196;SDS011;43999;51.660;5.616;2023-07-31T02:04:11;18.98;;;10.45;;
58196;SDS011;43999;51.660;5.616;2023-07-31T02:06:39;17.63;;;9.80;;
58196;SDS011;43999;51.660;5.616;2023-07-31T02:09:07;19.20;;;11.38;;
58196;SDS011;43999;51.660;5.616;2023-07-31T02:11:35;21.58;;;10.30;;
58196;SDS011;43999;51.660;5.616;2023-07-31T02:14:02;18.17;;;8.98;;
58196;SDS011;43999;51.660;5.616;2023-07-31T02:16:29;17.13;;;9.82;;
58196;SDS011;43999;51.660;5.616;2023-07-31T02:18:57;18.40;;;10.32;;
58196;SDS011;43999;51.660;5.616;2023-07-31T02:21:25;17.88;;;10.38;;
58196;SDS011;43999;51.660;5.616;2023-07-31T02:23:52;16.55;;;8.77;;
58196;SDS011;43999;51.660;5.616;2023-07-31T02:26:20;17.08;;;9.93;;
58196;SDS011;43999;51.660;5.616;2023-07-31T02:28:47;19.65;;;10.00;;
58196;SDS011;43999;51.660;5.616;2023-07-31T02:31:14;15.00;;;9.48;;
58196;SDS011;43999;51.660;5.616;2023-07-31T02:33:42;17.75;;;9.40;;
58196;SDS011;43999;51.660;5.616;2023-07-31T02:36:09;17.73;;;8.68;;
58196;SDS011;43999;51.660;5.616;2023-07-31T02:38:37;21.80;;;9.35;;
58196;SDS011;43999;51.660;5.616;2023-07-31T02:41:05;16.80;;;10.25;;
58196;SDS011;43999;51.660;5.616;2023-07-31T02:43:33;22.42;;;11.52;;
58196;SDS011;43999;51.660;5.616;2023-07-31T02:46:00;20.27;;;12.55;;
58196;SDS011;43999;51.660;5.616;2023-07-31T02:48:28;18.67;;;10.57;;
58196;SDS011;43999;51.660;5.616;2023-07-31T02:50:55;17.05;;;9.35;;
58196;SDS011;43999;51.660;5.616;2023-07-31T02:53:23;14.32;;;9.30;;
58196;SDS011;43999;51.660;5.616;2023-07-31T02:55:50;18.88;;;9.13;;
58196;SDS011;43999;51.660;5.616;2023-07-31T02:58:18;14.40;;;9.65;;
58196;SDS011;43999;51.660;5.616;2023-07-31T03:00:45;18.17;;;10.77;;
58196;SDS011;43999;51.660;5.616;2023-07-31T03:03:12;15.80;;;8.25;;
58196;SDS011;43999;51.660;5.616;2023-07-31T03:05:40;18.25;;;9.95;;
58196;SDS011;43999;51.660;5.616;2023-07-31T03:08:07;13.20;;;8.30;;
58196;SDS011;43999;51.660;5.616;2023-07-31T03:10:35;14.00;;;11.27;;
58196;SDS011;43999;51.660;5.616;2023-07-31T03:13:04;19.98;;;10.43;;
58196;SDS011;43999;51.660;5.616;2023-07-31T03:15:31;17.40;;;9.63;;
58196;SDS011;43999;51.660;5.616;2023-07-31T03:17:59;13.63;;;8.85;;
58196;SDS011;43999;51.660;5.616;2023-07-31T03:20:26;15.55;;;8.98;;
58196;SDS011;43999;51.660;5.616;2023-07-31T03:22:54;19.52;;;9.45;;
58196;SDS011;43999;51.660;5.616;2023-07-31T03:25:21;17.83;;;9.65;;
58196;SDS011;43999;51.660;5.616;2023-07-31T03:27:50;17.05;;;10.63;;
58196;SDS011;43999;51.660;5.616;2023-07-31T03:30:17;15.25;;;10.35;;
58196;SDS011;43999;51.660;5.616;2023-07-31T03:32:45;12.48;;;8.55;;
58196;SDS011;43999;51.660;5.616;2023-07-31T03:35:12;17.30;;;9.93;;
58196;SDS011;43999;51.660;5.616;2023-07-31T03:37:39;17.23;;;9.18;;
58196;SDS011;43999;51.660;5.616;2023-07-31T03:40:07;15.25;;;8.82;;
58196;SDS011;43999;51.660;5.616;2023-07-31T03:42:36;19.80;;;9.77;;
58196;SDS011;43999;51.660;5.616;2023-07-31T03:45:03;17.17;;;8.80;;
58196;SDS011;43999;51.660;5.616;2023-07-31T03:47:32;13.27;;;8.70;;
58196;SDS011;43999;51.660;5.616;2023-07-31T03:50:00;15.73;;;9.90;;
58196;SDS011;43999;51.660;5.616;2023-07-31T03:52:29;17.92;;;8.60;;
58196;SDS011;43999;51.660;5.616;2023-07-31T03:54:56;19.55;;;8.95;;
58196;SDS011;43999;51.660;5.616;2023-07-31T03:57:23;16.30;;;9.40;;
58196;SDS011;43999;51.660;5.616;2023-07-31T03:59:51;18.70;;;9.38;;
58196;SDS011;43999;51.660;5.616;2023-07-31T04:02:18;19.95;;;9.52;;
58196;SDS011;43999;51.660;5.616;2023-07-31T04:04:45;21.70;;;10.32;;
58196;SDS011;43999;51.660;5.616;2023-07-31T04:07:13;16.90;;;9.18;;
58196;SDS011;43999;51.660;5.616;2023-07-31T04:09:40;17.05;;;8.15;;
58196;SDS011;43999;51.660;5.616;2023-07-31T04:12:08;18.52;;;8.50;;
58196;SDS011;43999;51.660;5.616;2023-07-31T04:14:35;14.35;;;9.48;;
58196;SDS011;43999;51.660;5.616;2023-07-31T04:17:03;15.43;;;8.43;;
58196;SDS011;43999;51.660;5.616;2023-07-31T04:19:30;19.08;;;9.05;;
58196;SDS011;43999;51.660;5.616;2023-07-31T04:21:58;16.88;;;8.65;;
58196;SDS011;43999;51.660;5.616;2023-07-31T04:24:25;20.75;;;10.60;;
58196;SDS011;43999;51.660;5.616;2023-07-31T04:26:53;15.88;;;9.32;;
58196;SDS011;43999;51.660;5.616;2023-07-31T04:29:20;15.93;;;8.48;;
58196;SDS011;43999;51.660;5.616;2023-07-31T04:31:48;17.10;;;8.50;;
58196;SDS011;43999;51.660;5.616;2023-07-31T04:34:15;20.67;;;8.38;;
58196;SDS011;43999;51.660;5.616;2023-07-31T04:36:43;14.43;;;8.30;;
58196;SDS011;43999;51.660;5.616;2023-07-31T04:39:10;16.33;;;9.20;;
58196;SDS011;43999;51.660;5.616;2023-07-31T04:41:37;16.63;;;9.27;;
58196;SDS011;43999;51.660;5.616;2023-07-31T04:44:05;16.58;;;8.45;;
58196;SDS011;43999;51.660;5.616;2023-07-31T04:46:32;14.05;;;8.10;;
58196;SDS011;43999;51.660;5.616;2023-07-31T04:49:00;13.38;;;8.98;;
58196;SDS011;43999;51.660;5.616;2023-07-31T04:51:27;15.48;;;7.93;;
58196;SDS011;43999;51.660;5.616;2023-07-31T04:53:55;18.95;;;9.43;;
58196;SDS011;43999;51.660;5.616;2023-07-31T04:56:23;16.30;;;7.80;;
58196;SDS011;43999;51.660;5.616;2023-07-31T04:58:50;14.70;;;8.73;;
58196;SDS011;43999;51.660;5.616;2023-07-31T05:01:18;16.10;;;8.10;;
58196;SDS011;43999;51.660;5.616;2023-07-31T05:03:48;13.00;;;7.35;;
58196;SDS011;43999;51.660;5.616;2023-07-31T05:06:16;16.30;;;8.85;;
58196;SDS011;43999;51.660;5.616;2023-07-31T05:08:43;15.82;;;9.18;;
58196;SDS011;43999;51.660;5.616;2023-07-31T05:11:11;15.07;;;7.90;;
58196;SDS011;43999;51.660;5.616;2023-07-31T05:13:39;16.83;;;8.98;;
58196;SDS011;43999;51.660;5.616;2023-07-31T05:16:06;14.73;;;8.63;;
58196;SDS011;43999;51.660;5.616;2023-07-31T05:18:34;14.25;;;8.55;;
58196;SDS011;43999;51.660;5.616;2023-07-31T05:21:01;12.63;;;8.20;;
58196;SDS011;43999;51.660;5.616;2023-07-31T05:23:29;20.92;;;8.35;;
58196;SDS011;43999;51.660;5.616;2023-07-31T05:26:04;16.55;;;8.93;;
58196;SDS011;43999;51.660;5.616;2023-07-31T05:28:34;19.88;;;8.73;;
58196;SDS011;43999;51.660;5.616;2023-07-31T05:31:03;18.10;;;9.98;;
58196;SDS011;43999;51.660;5.616;2023-07-31T05:33:31;16.63;;;9.15;;
58196;SDS011;43999;51.660;5.616;2023-07-31T05:36:00;17.30;;;9.48;;
58196;SDS011;43999;51.660;5.616;2023-07-31T05:38:28;13.82;;;8.40;;
58196;SDS011;43999;51.660;5.616;2023-07-31T05:40:56;15.50;;;8.77;;
58196;SDS011;43999;51.660;5.616;2023-07-31T05:43:25;13.77;;;8.52;;
58196;SDS011;43999;51.660;5.616;2023-07-31T05:45:53;18.73;;;9.85;;
58196;SDS011;43999;51.660;5.616;2023-07-31T05:48:20;20.27;;;10.48;;
58196;SDS011;43999;51.660;5.616;2023-07-31T05:50:48;19.13;;;10.38;;
58196;SDS011;43999;51.660;5.616;2023-07-31T05:53:15;16.10;;;9.40;;
58196;SDS011;43999;51.660;5.616;2023-07-31T05:55:43;17.88;;;10.70;;
58196;SDS011;43999;51.660;5.616;2023-07-31T05:58:10;16.35;;;10.13;;
58196;SDS011;43999;51.660;5.616;2023-07-31T06:00:37;18.70;;;10.43;;
58196;SDS011;43999;51.660;5.616;2023-07-31T06:03:05;14.30;;;9.90;;
58196;SDS011;43999;51.660;5.616;2023-07-31T06:05:32;16.27;;;9.05;;
58196;SDS011;43999;51.660;5.616;2023-07-31T06:08:00;14.88;;;8.57;;
58196;SDS011;43999;51.660;5.616;2023-07-31T06:10:28;13.20;;;8.93;;
58196;SDS011;43999;51.660;5.616;2023-07-31T06:12:55;12.02;;;8.13;;
58196;SDS011;43999;51.660;5.616;2023-07-31T06:15:23;10.68;;;7.35;;
58196;SDS011;43999;51.660;5.616;2023-07-31T06:17:51;11.07;;;8.27;;
58196;SDS011;43999;51.660;5.616;2023-07-31T06:20:19;9.65;;;7.43;;
58196;SDS011;43999;51.660;5.616;2023-07-31T06:22:46;8.90;;;7.53;;
58196;SDS011;43999;51.660;5.616;2023-07-31T06:25:14;13.68;;;6.88;;
58196;SDS011;43999;51.660;5.616;2023-07-31T06:27:41;7.93;;;6.95;;
58196;SDS011;43999;51.660;5.616;2023-07-31T06:30:09;8.75;;;6.38;;
58196;SDS011;43999;51.660;5.616;2023-07-31T06:32:37;12.10;;;6.60;;
58196;SDS011;43999;51.660;5.616;2023-07-31T06:35:06;7.85;;;6.30;;
58196;SDS011;43999;51.660;5.616;2023-07-31T06:37:34;8.20;;;6.32;;
58196;SDS011;43999;51.660;5.616;2023-07-31T06:40:03;9.00;;;6.35;;
58196;SDS011;43999;51.660;5.616;2023-07-31T06:42:33;10.25;;;6.45;;
58196;SDS011;43999;51.660;5.616;2023-07-31T06:45:02;8.23;;;6.80;;
58196;SDS011;43999;51.660;5.616;2023-07-31T06:47:30;10.27;;;6.47;;
58196;SDS011;43999;51.660;5.616;2023-07-31T06:49:58;12.98;;;6.60;;
58196;SDS011;43999;51.660;5.616;2023-07-31T06:52:26;8.52;;;6.20;;
58196;SDS011;43999;51.660;5.616;2023-07-31T06:55:00;7.47;;;6.30;;
58196;SDS011;43999;51.660;5.616;2023-07-31T06:57:49;6.97;;;6.00;;
58196;SDS011;43999;51.660;5.616;2023-07-31T07:00:19;8.77;;;6.28;;
58196;SDS011;43999;51.660;5.616;2023-07-31T07:02:49;12.40;;;7.22;;
58196;SDS011;43999;51.660;5.616;2023-07-31T07:05:17;8.10;;;6.40;;
58196;SDS011;43999;51.660;5.616;2023-07-31T07:07:45;9.93;;;7.15;;
58196;SDS011;43999;51.660;5.616;2023-07-31T07:10:12;9.15;;;7.78;;
58196;SDS011;43999;51.660;5.616;2023-07-31T07:12:40;11.00;;;7.38;;
58196;SDS011;43999;51.660;5.616;2023-07-31T07:15:10;9.32;;;8.18;;
58196;SDS011;43999;51.660;5.616;2023-07-31T07:17:38;11.00;;;6.78;;
58196;SDS011;43999;51.660;5.616;2023-07-31T07:20:05;8.50;;;7.65;;
58196;SDS011;43999;51.660;5.616;2023-07-31T07:22:34;7.03;;;5.38;;
58196;SDS011;43999;51.660;5.616;2023-07-31T07:25:02;7.85;;;6.47;;
58196;SDS011;43999;51.660;5.616;2023-07-31T07:27:33;9.02;;;6.88;;
58196;SDS011;43999;51.660;5.616;2023-07-31T07:30:01;8.52;;;6.03;;
58196;SDS011;43999;51.660;5.616;2023-07-31T07:32:29;9.25;;;6.93;;
58196;SDS011;43999;51.660;5.616;2023-07-31T07:34:56;9.90;;;6.50;;
58196;SDS011;43999;51.660;5.616;2023-07-31T07:37:24;7.72;;;7.03;;
58196;SDS011;43999;51.660;5.616;2023-07-31T07:39:51;7.80;;;6.95;;
58196;SDS011;43999;51.660;5.616;2023-07-31T07:42:19;8.77;;;6.35;;
58196;SDS011;43999;51.660;5.616;2023-07-31T07:44:46;6.68;;;6.00;;
58196;SDS011;43999;51.660;5.616;2023-07-31T07:47:13;7.65;;;6.95;;
58196;SDS011;43999;51.660;5.616;2023-07-31T07:49:41;7.43;;;6.45;;
58196;SDS011;43999;51.660;5.616;2023-07-31T07:52:14;7.15;;;6.45;;
58196;SDS011;43999;51.660;5.616;2023-07-31T07:54:41;7.28;;;5.93;;
58196;SDS011;43999;51.660;5.616;2023-07-31T07:57:09;7.97;;;6.30;;
58196;SDS011;43999;51.660;5.616;2023-07-31T07:59:36;7.80;;;6.78;;
58196;SDS011;43999;51.660;5.616;2023-07-31T08:02:03;10.98;;;7.43;;
58196;SDS011;43999;51.660;5.616;2023-07-31T08:04:31;7.32;;;6.18;;
58196;SDS011;43999;51.660;5.616;2023-07-31T08:06:59;9.02;;;7.22;;
58196;SDS011;43999;51.660;5.616;2023-07-31T08:09:26;9.43;;;7.28;;
58196;SDS011;43999;51.660;5.616;2023-07-31T08:11:53;12.45;;;8.50;;
58196;SDS011;43999;51.660;5.616;2023-07-31T08:14:23;11.23;;;7.88;;
58196;SDS011;43999;51.660;5.616;2023-07-31T08:16:51;10.20;;;8.80;;
58196;SDS011;43999;51.660;5.616;2023-07-31T08:19:18;10.77;;;8.57;;
58196;SDS011;43999;51.660;5.616;2023-07-31T08:21:46;11.27;;;8.95;;
58196;SDS011;43999;51.660;5.616;2023-07-31T08:24:14;11.23;;;8.95;;
58196;SDS011;43999;51.660;5.616;2023-07-31T08:26:41;12.85;;;9.60;;
58196;SDS011;43999;51.660;5.616;2023-07-31T08:29:09;10.20;;;8.90;;
58196;SDS011;43999;51.660;5.616;2023-07-31T08:31:36;11.82;;;10.02;;
58196;SDS011;43999;51.660;5.616;2023-07-31T08:34:03;9.73;;;8.82;;
58196;SDS011;43999;51.660;5.616;2023-07-31T08:36:31;13.35;;;8.63;;
58196;SDS011;43999;51.660;5.616;2023-07-31T08:38:58;11.75;;;8.63;;
58196;SDS011;43999;51.660;5.616;2023-07-31T08:41:26;10.75;;;8.40;;
58196;SDS011;43999;51.660;5.616;2023-07-31T08:43:54;11.40;;;8.82;;
58196;SDS011;43999;51.660;5.616;2023-07-31T08:46:23;11.82;;;8.75;;
58196;SDS011;43999;51.660;5.616;2023-07-31T08:48:58;10.73;;;8.77;;
58196;SDS011;43999;51.660;5.616;2023-07-31T08:51:30;10.77;;;8.32;;
58196;SDS011;43999;51.660;5.616;2023-07-31T08:54:00;11.82;;;9.40;;
58196;SDS011;43999;51.660;5.616;2023-07-31T08:56:31;11.65;;;8.73;;
58196;SDS011;43999;51.660;5.616;2023-07-31T08:59:00;10.98;;;8.45;;
58196;SDS011;43999;51.660;5.616;2023-07-31T09:01:31;12.77;;;9.95;;
58196;SDS011;43999;51.660;5.616;2023-07-31T09:04:09;12.07;;;9.27;;
58196;SDS011;43999;51.660;5.616;2023-07-31T09:06:40;11.07;;;9.80;;
58196;SDS011;43999;51.660;5.616;2023-07-31T09:09:09;13.38;;;9.90;;
58196;SDS011;43999;51.660;5.616;2023-07-31T09:11:37;16.70;;;11.05;;
58196;SDS011;43999;51.660;5.616;2023-07-31T09:14:05;14.15;;;11.48;;
58196;SDS011;43999;51.660;5.616;2023-07-31T09:16:35;13.65;;;11.15;;
58196;SDS011;43999;51.660;5.616;2023-07-31T09:19:24;15.90;;;11.07;;
58196;SDS011;43999;51.660;5.616;2023-07-31T09:22:00;13.45;;;11.13;;
58196;SDS011;43999;51.660;5.616;2023-07-31T09:24:29;13.30;;;11.90;;
58196;SDS011;43999;51.660;5.616;2023-07-31T09:27:00;15.73;;;11.93;;
58196;SDS011;43999;51.660;5.616;2023-07-31T09:29:29;15.40;;;11.63;;
58196;SDS011;43999;51.660;5.616;2023-07-31T09:31:56;13.80;;;12.25;;
58196;SDS011;43999;51.660;5.616;2023-07-31T09:34:29;14.77;;;11.60;;
58196;SDS011;43999;51.660;5.616;2023-07-31T09:37:05;13.35;;;11.95;;
58196;SDS011;43999;51.660;5.616;2023-07-31T09:39:33;14.73;;;13.35;;
58196;SDS011;43999;51.660;5.616;2023-07-31T09:42:14;18.25;;;12.05;;
58196;SDS011;43999;51.660;5.616;2023-07-31T09:44:53;14.48;;;11.38;;
58196;SDS011;43999;51.660;5.616;2023-07-31T09:47:24;14.68;;;12.80;;
58196;SDS011;43999;51.660;5.616;2023-07-31T09:49:52;12.45;;;10.43;;
58196;SDS011;43999;51.660;5.616;2023-07-31T09:52:20;14.73;;;11.90;;
58196;SDS011;43999;51.660;5.616;2023-07-31T09:54:48;13.65;;;12.25;;
58196;SDS011;43999;51.660;5.616;2023-07-31T09:57:16;14.98;;;12.05;;
58196;SDS011;43999;51.660;5.616;2023-07-31T09:59:46;14.73;;;12.43;;
58196;SDS011;43999;51.660;5.616;2023-07-31T10:02:21;12.57;;;11.27;;
58196;SDS011;43999;51.660;5.616;2023-07-31T10:04:50;15.95;;;12.73;;
58196;SDS011;43999;51.660;5.616;2023-07-31T10:07:21;16.88;;;12.15;;
58196;SDS011;43999;51.660;5.616;2023-07-31T10:09:56;13.25;;;11.80;;
58196;SDS011;43999;51.660;5.616;2023-07-31T10:12:31;14.52;;;12.20;;
58196;SDS011;43999;51.660;5.616;2023-07-31T10:15:04;14.93;;;10.57;;
58196;SDS011;43999;51.660;5.616;2023-07-31T10:17:33;13.05;;;10.55;;
58196;SDS011;43999;51.660;5.616;2023-07-31T10:20:04;13.35;;;11.38;;
58196;SDS011;43999;51.660;5.616;2023-07-31T10:22:35;11.73;;;10.50;;
58196;SDS011;43999;51.660;5.616;2023-07-31T10:25:12;11.50;;;10.32;;
58196;SDS011;43999;51.660;5.616;2023-07-31T10:27:46;11.98;;;10.05;;
58196;SDS011;43999;51.660;5.616;2023-07-31T10:30:16;13.38;;;9.90;;
58196;SDS011;43999;51.660;5.616;2023-07-31T10:32:50;11.65;;;9.18;;
58196;SDS011;43999;51.660;5.616;2023-07-31T10:35:22;11.65;;;10.45;;
58196;SDS011;43999;51.660;5.616;2023-07-31T10:37:50;9.77;;;8.75;;
58196;SDS011;43999;51.660;5.616;2023-07-31T10:40:20;10.88;;;9.73;;
58196;SDS011;43999;51.660;5.616;2023-07-31T10:42:57;11.60;;;9.27;;
58196;SDS011;43999;51.660;5.616;2023-07-31T10:45:26;10.80;;;9.70;;
58196;SDS011;43999;51.660;5.616;2023-07-31T10:48:15;12.57;;;10.13;;
58196;SDS011;43999;51.660;5.616;2023-07-31T10:50:47;9.85;;;8.35;;
58196;SDS011;43999;51.660;5.616;2023-07-31T10:53:23;10.18;;;8.80;;
58196;SDS011;43999;51.660;5.616;2023-07-31T10:56:00;11.65;;;7.88;;
58196;SDS011;43999;51.660;5.616;2023-07-31T10:58:30;11.43;;;8.70;;
58196;SDS011;43999;51.660;5.616;2023-07-31T11:01:00;8.05;;;6.78;;
58196;SDS011;43999;51.660;5.616;2023-07-31T11:03:44;10.00;;;7.97;;
58196;SDS011;43999;51.660;5.616;2023-07-31T11:06:19;9.35;;;7.22;;
58196;SDS011;43999;51.660;5.616;2023-07-31T11:08:47;9.70;;;7.80;;
58196;SDS011;43999;51.660;5.616;2023-07-31T11:11:17;10.10;;;8.40;;
58196;SDS011;43999;51.660;5.616;2023-07-31T11:13:51;9.18;;;7.05;;
58196;SDS011;43999;51.660;5.616;2023-07-31T11:16:21;8.98;;;8.05;;
58196;SDS011;43999;51.660;5.616;2023-07-31T11:18:52;9.60;;;7.32;;
58196;SDS011;43999;51.660;5.616;2023-07-31T11:21:23;10.60;;;7.05;;
58196;SDS011;43999;51.660;5.616;2023-07-31T11:23:53;9.00;;;8.20;;
58196;SDS011;43999;51.660;5.616;2023-07-31T11:26:27;13.30;;;7.88;;
58196;SDS011;43999;51.660;5.616;2023-07-31T11:28:55;11.95;;;7.55;;
58196;SDS011;43999;51.660;5.616;2023-07-31T11:31:22;9.38;;;7.18;;
58196;SDS011;43999;51.660;5.616;2023-07-31T11:33:50;9.25;;;8.15;;
58196;SDS011;43999;51.660;5.616;2023-07-31T11:36:18;8.90;;;6.13;;
58196;SDS011;43999;51.660;5.616;2023-07-31T11:38:47;8.90;;;7.72;;
58196;SDS011;43999;51.660;5.616;2023-07-31T11:41:15;9.82;;;8.20;;
58196;SDS011;43999;51.660;5.616;2023-07-31T11:43:45;8.93;;;6.47;;
58196;SDS011;43999;51.660;5.616;2023-07-31T11:46:14;8.95;;;8.00;;
58196;SDS011;43999;51.660;5.616;2023-07-31T11:48:42;9.05;;;7.78;;
58196;SDS011;43999;51.660;5.616;2023-07-31T11:51:10;11.35;;;8.13;;
58196;SDS011;43999;51.660;5.616;2023-07-31T11:53:43;9.50;;;7.18;;
58196;SDS011;43999;51.660;5.616;2023-07-31T11:56:18;12.80;;;9.25;;
58196;SDS011;43999;51.660;5.616;2023-07-31T11:58:50;11.07;;;7.22;;
58196;SDS011;43999;51.660;5.616;2023-07-31T12:01:29;9.20;;;7.63;;
58196;SDS011;43999;51.660;5.616;2023-07-31T12:03:58;7.72;;;6.65;;
58196;SDS011;43999;51.660;5.616;2023-07-31T12:06:35;6.80;;;6.15;;
58196;SDS011;43999;51.660;5.616;2023-07-31T12:09:04;9.70;;;7.18;;
58196;SDS011;43999;51.660;5.616;2023-07-31T12:11:48;8.40;;;6.78;;
58196;SDS011;43999;51.660;5.616;2023-07-31T12:14:19;9.73;;;6.50;;
58196;SDS011;43999;51.660;5.616;2023-07-31T12:16:55;5.95;;;5.38;;
58196;SDS011;43999;51.660;5.616;2023-07-31T12:19:33;7.32;;;5.95;;
58196;SDS011;43999;51.660;5.616;2023-07-31T12:22:02;10.90;;;4.93;;
58196;SDS011;43999;51.660;5.616;2023-07-31T12:24:41;6.13;;;5.30;;
58196;SDS011;43999;51.660;5.616;2023-07-31T12:27:14;5.85;;;5.03;;
58196;SDS011;43999;51.660;5.616;2023-07-31T12:29:44;7.85;;;4.78;;
58196;SDS011;43999;51.660;5.616;2023-07-31T12:32:19;6.85;;;5.85;;
58196;SDS011;43999;51.660;5.616;2023-07-31T12:34:52;5.97;;;5.38;;
58196;SDS011;43999;51.660;5.616;2023-07-31T12:37:20;11.13;;;5.75;;
58196;SDS011;43999;51.660;5.616;2023-07-31T12:39:48;7.40;;;6.28;;
58196;SDS011;43999;51.660;5.616;2023-07-31T12:42:17;9.18;;;6.32;;
58196;SDS011;43999;51.660;5.616;2023-07-31T12:44:45;6.38;;;5.78;;
58196;SDS011;43999;51.660;5.616;2023-07-31T12:47:12;7.50;;;5.55;;
58196;SDS011;43999;51.660;5.616;2023-07-31T12:49:41;8.77;;;6.88;;
58196;SDS011;43999;51.660;5.616;2023-07-31T12:52:09;10.15;;;7.05;;
58196;SDS011;43999;51.660;5.616;2023-07-31T12:54:36;10.88;;;7.85;;
58196;SDS011;43999;51.660;5.616;2023-07-31T12:57:04;9.75;;;7.63;;
58196;SDS011;43999;51.660;5.616;2023-07-31T12:59:31;9.18;;;7.88;;
58196;SDS011;43999;51.660;5.616;2023-07-31T13:01:59;9.93;;;7.32;;
58196;SDS011;43999;51.660;5.616;2023-07-31T13:04:27;9.30;;;7.18;;
58196;SDS011;43999;51.660;5.616;2023-07-31T13:06:55;9.23;;;7.57;;
58196;SDS011;43999;51.660;5.616;2023-07-31T13:09:22;10.25;;;8.95;;
58196;SDS011;43999;51.660;5.616;2023-07-31T13:11:50;10.52;;;9.18;;
58196;SDS011;43999;51.660;5.616;2023-07-31T13:14:17;10.32;;;8.73;;
58196;SDS011;43999;51.660;5.616;2023-07-31T13:16:45;11.45;;;10.35;;
58196;SDS011;43999;51.660;5.616;2023-07-31T13:19:12;14.07;;;10.45;;
58196;SDS011;43999;51.660;5.616;2023-07-31T13:21:39;11.05;;;10.00;;
58196;SDS011;43999;51.660;5.616;2023-07-31T13:24:07;13.57;;;10.13;;
58196;SDS011;43999;51.660;5.616;2023-07-31T13:26:35;11.05;;;9.25;;
58196;SDS011;43999;51.660;5.616;2023-07-31T13:29:04;12.90;;;10.73;;
58196;SDS011;43999;51.660;5.616;2023-07-31T13:31:31;11.02;;;9.38;;
58196;SDS011;43999;51.660;5.616;2023-07-31T13:33:58;14.20;;;10.05;;
58196;SDS011;43999;51.660;5.616;2023-07-31T13:36:26;13.27;;;10.80;;
58196;SDS011;43999;51.660;5.616;2023-07-31T13:38:53;13.25;;;9.40;;
58196;SDS011;43999;51.660;5.616;2023-07-31T13:41:21;12.18;;;9.82;;
58196;SDS011;43999;51.660;5.616;2023-07-31T13:43:49;13.13;;;9.13;;
58196;SDS011;43999;51.660;5.616;2023-07-31T13:46:16;14.10;;;10.18;;
58196;SDS011;43999;51.660;5.616;2023-07-31T13:48:43;14.75;;;9.57;;
58196;SDS011;43999;51.660;5.616;2023-07-31T13:51:11;10.75;;;9.13;;
58196;SDS011;43999;51.660;5.616;2023-07-31T13:53:38;13.02;;;9.48;;
58196;SDS011;43999;51.660;5.616;2023-07-31T13:56:06;14.68;;;8.88;;
58196;SDS011;43999;51.660;5.616;2023-07-31T13:58:34;12.15;;;10.23;;
58196;SDS011;43999;51.660;5.616;2023-07-31T14:01:01;13.85;;;10.55;;
58196;SDS011;43999;51.660;5.616;2023-07-31T14:03:30;13.65;;;10.77;;
58196;SDS011;43999;51.660;5.616;2023-07-31T14:05:59;15.77;;;11.13;;
58196;SDS011;43999;51.660;5.616;2023-07-31T14:08:28;13.05;;;10.85;;
58196;SDS011;43999;51.660;5.616;2023-07-31T14:10:55;13.90;;;9.85;;
58196;SDS011;43999;51.660;5.616;2023-07-31T14:13:23;11.70;;;9.80;;
58196;SDS011;43999;51.660;5.616;2023-07-31T14:15:50;13.10;;;10.13;;
58196;SDS011;43999;51.660;5.616;2023-07-31T14:18:18;12.57;;;9.93;;
58196;SDS011;43999;51.660;5.616;2023-07-31T14:20:46;15.20;;;9.90;;
58196;SDS011;43999;51.660;5.616;2023-07-31T14:23:13;11.55;;;10.07;;
58196;SDS011;43999;51.660;5.616;2023-07-31T14:25:41;16.38;;;12.48;;
58196;SDS011;43999;51.660;5.616;2023-07-31T14:28:09;15.23;;;11.38;;
58196;SDS011;43999;51.660;5.616;2023-07-31T14:30:36;12.52;;;10.68;;
58196;SDS011;43999;51.660;5.616;2023-07-31T14:33:05;13.25;;;11.82;;
58196;SDS011;43999;51.660;5.616;2023-07-31T14:35:34;13.80;;;11.85;;
58196;SDS011;43999;51.660;5.616;2023-07-31T14:38:01;16.45;;;12.00;;
58196;SDS011;43999;51.660;5.616;2023-07-31T14:40:29;13.70;;;12.02;;
58196;SDS011;43999;51.660;5.616;2023-07-31T14:42:56;15.30;;;10.77;;
58196;SDS011;43999;51.660;5.616;2023-07-31T14:45:24;14.50;;;11.52;;
58196;SDS011;43999;51.660;5.616;2023-07-31T14:47:54;13.65;;;10.15;;
58196;SDS011;43999;51.660;5.616;2023-07-31T14:50:22;15.30;;;10.68;;